createdAt,value
2023-04-18T00:02:38.802Z,100.00
2023-04-18T00:05:42.300Z,100.00
2023-04-18T00:08:44.858Z,100.00
2023-04-18T00:11:47.614Z,100.00
2023-04-18T00:14:52.934Z,100.00
2023-04-18T00:17:57.102Z,100.00
2023-04-18T00:20:59.682Z,100.00
2023-04-18T00:24:02.463Z,100.00
2023-04-18T00:27:04.916Z,100.00
2023-04-18T00:30:09.069Z,100.00
2023-04-18T00:33:13.120Z,100.00
2023-04-18T00:36:15.937Z,100.00
2023-04-18T00:39:18.444Z,100.00
2023-04-18T00:42:22.280Z,100.00
2023-04-18T00:45:24.705Z,100.00
2023-04-18T00:48:27.922Z,100.00
2023-04-18T00:51:30.794Z,100.00
2023-04-18T00:54:33.622Z,100.00
2023-04-18T00:57:36.419Z,100.00
2023-04-18T01:00:39.197Z,100.00
2023-04-18T01:03:41.787Z,100.00
2023-04-18T01:06:45.792Z,100.00
2023-04-18T01:09:48.422Z,100.00
2023-04-18T01:12:51.159Z,100.00
2023-04-18T01:15:55.277Z,100.00
2023-04-18T01:18:58.314Z,100.00
2023-04-18T01:22:00.915Z,100.00
2023-04-18T01:25:08.426Z,100.00
2023-04-18T01:28:12.438Z,100.00
2023-04-18T01:31:15.221Z,100.00
2023-04-18T01:34:20.988Z,100.00
2023-04-18T01:37:23.990Z,100.00
2023-04-18T01:40:26.597Z,100.00
2023-04-18T01:43:29.726Z,100.00
2023-04-18T01:46:32.238Z,100.00
2023-04-18T01:49:37.155Z,100.00
2023-04-18T01:52:39.454Z,100.00
2023-04-18T01:55:42.175Z,100.00
2023-04-18T01:58:44.517Z,100.00
2023-04-18T02:01:48.521Z,100.00
2023-04-18T02:04:51.054Z,100.00
2023-04-18T02:07:54.049Z,100.00
2023-04-18T02:10:56.335Z,100.00
2023-04-18T02:13:59.906Z,100.00
2023-04-18T02:17:02.381Z,100.00
2023-04-18T02:20:05.699Z,100.00
2023-04-18T02:23:10.163Z,100.00
2023-04-18T02:26:12.987Z,100.00
2023-04-18T02:29:15.488Z,100.00
2023-04-18T02:32:18.368Z,100.00
2023-04-18T02:35:21.770Z,100.00
2023-04-18T02:38:24.575Z,100.00
2023-04-18T02:41:27.837Z,100.00
2023-04-18T02:44:30.573Z,100.00
2023-04-18T02:47:37.719Z,100.00
2023-04-18T02:50:52.860Z,100.00
2023-04-18T02:53:55.915Z,100.00
2023-04-18T02:57:01.500Z,100.00
2023-04-18T03:00:17.265Z,100.00
2023-04-18T03:03:38.571Z,100.00
2023-04-18T03:07:01.157Z,100.00
2023-04-18T03:10:07.852Z,100.00
2023-04-18T03:13:12.622Z,100.00
2023-04-18T03:16:16.075Z,100.00
2023-04-18T03:19:19.102Z,100.00
2023-04-18T03:22:21.977Z,100.00
2023-04-18T03:25:31.147Z,100.00
2023-04-18T03:28:34.807Z,100.00
2023-04-18T03:31:37.266Z,100.00
2023-04-18T03:34:40.063Z,100.00
2023-04-18T03:37:44.261Z,100.00
2023-04-18T03:40:52.472Z,100.00
2023-04-18T03:44:01.034Z,100.00
2023-04-18T03:47:04.191Z,100.00
2023-04-18T03:50:09.726Z,100.00
2023-04-18T03:53:12.759Z,100.00
2023-04-18T03:56:15.121Z,100.00
2023-04-18T03:59:30.231Z,100.00
2023-04-18T04:02:32.858Z,100.00
2023-04-18T04:05:36.043Z,100.00
2023-04-18T04:08:38.416Z,100.00
2023-04-18T04:11:41.566Z,100.00
2023-04-18T04:14:46.812Z,100.00
2023-04-18T04:17:51.004Z,100.00
2023-04-18T04:20:54.001Z,100.00
2023-04-18T04:24:13.908Z,100.00
2023-04-18T04:27:20.777Z,100.00
2023-04-18T04:30:23.697Z,100.00
2023-04-18T04:33:28.837Z,100.00
2023-04-18T04:36:35.924Z,100.00
2023-04-18T04:39:41.359Z,100.00
2023-04-18T04:43:16.652Z,100.00
2023-04-18T04:46:23.349Z,100.00
2023-04-18T04:49:26.240Z,100.00
2023-04-18T04:52:28.513Z,100.00
2023-04-18T04:55:32.928Z,100.00
2023-04-18T04:58:36.907Z,100.00
2023-04-18T05:02:01.840Z,100.00
2023-04-18T05:05:23.212Z,100.00
2023-04-18T05:08:26.455Z,100.00
2023-04-18T05:11:28.817Z,100.00
2023-04-18T05:14:31.642Z,100.00
2023-04-18T05:17:33.990Z,100.00
2023-04-18T05:20:36.903Z,100.00
2023-04-18T05:23:40.373Z,100.00
2023-04-18T05:26:43.688Z,100.00
2023-04-18T05:29:47.770Z,100.00
2023-04-18T05:32:50.607Z,100.00
2023-04-18T05:35:53.120Z,100.00
2023-04-18T05:38:55.771Z,100.00
2023-04-18T05:41:58.617Z,100.00
2023-04-18T05:45:01.375Z,100.00
2023-04-18T05:48:04.095Z,100.00
2023-04-18T05:51:06.741Z,100.00
2023-04-18T05:54:09.107Z,100.00
2023-04-18T05:57:12.281Z,100.00
2023-04-18T06:00:15.360Z,100.00
2023-04-18T06:03:18.317Z,100.00
2023-04-18T06:06:21.092Z,100.00
2023-04-18T06:09:24.117Z,100.00
2023-04-18T06:12:26.537Z,100.00
2023-04-18T06:15:29.392Z,100.00
2023-04-18T06:18:31.752Z,98.59
2023-04-18T06:21:34.668Z,97.67
2023-04-18T06:24:37.683Z,98.24
2023-04-18T06:27:40.394Z,99.26
2023-04-18T06:30:42.920Z,98.29
2023-04-18T06:33:45.674Z,97.75
2023-04-18T06:36:48.142Z,97.55
2023-04-18T06:39:50.912Z,95.68
2023-04-18T06:42:53.403Z,93.12
2023-04-18T06:45:56.892Z,95.53
2023-04-18T06:48:59.474Z,95.07
2023-04-18T06:52:02.256Z,94.76
2023-04-18T06:55:04.940Z,93.39
2023-04-18T06:58:08.734Z,92.55
2023-04-18T07:01:11.054Z,93.06
2023-04-18T07:04:14.346Z,94.36
2023-04-18T07:07:17.068Z,92.92
2023-04-18T07:10:19.874Z,91.52
2023-04-18T07:13:22.243Z,91.56
2023-04-18T07:16:25.066Z,91.67
2023-04-18T07:19:27.419Z,91.60
2023-04-18T07:22:30.118Z,91.89
2023-04-18T07:25:32.553Z,91.08
2023-04-18T07:28:35.494Z,90.00
2023-04-18T07:31:37.870Z,90.84
2023-04-18T07:34:40.570Z,88.35
2023-04-18T07:37:42.875Z,84.47
2023-04-18T07:40:46.016Z,83.99
2023-04-18T07:43:48.316Z,81.03
2023-04-18T07:46:52.102Z,81.25
2023-04-18T07:49:54.931Z,82.46
2023-04-18T07:52:57.602Z,77.79
2023-04-18T07:56:00.090Z,76.07
2023-04-18T07:59:02.903Z,74.09
2023-04-18T08:02:05.332Z,73.87
2023-04-18T08:05:09.096Z,72.43
2023-04-18T08:08:12.408Z,73.96
2023-04-18T08:11:15.225Z,69.72
2023-04-18T08:14:17.775Z,75.76
2023-04-18T08:17:20.753Z,71.34
2023-04-18T08:20:23.410Z,74.06
2023-04-18T08:23:26.292Z,67.93
2023-04-18T08:26:28.676Z,64.95
2023-04-18T08:29:33.255Z,65.48
2023-04-18T08:32:36.809Z,63.38
2023-04-18T08:35:39.438Z,66.59
2023-04-18T08:38:41.759Z,63.69
2023-04-18T08:41:46.411Z,69.14
2023-04-18T08:44:48.962Z,63.65
2023-04-18T08:47:52.695Z,65.18
2023-04-18T08:50:59.219Z,63.55
2023-04-18T08:54:04.734Z,62.92
2023-04-18T08:57:09.001Z,60.76
2023-04-18T09:00:12.247Z,62.79
2023-04-18T09:03:15.792Z,63.95
2023-04-18T09:06:20.629Z,60.88
2023-04-18T09:09:27.685Z,65.82
2023-04-18T09:12:30.591Z,61.16
2023-04-18T09:15:32.987Z,62.08
2023-04-18T09:18:35.693Z,63.10
2023-04-18T09:21:44.652Z,60.38
2023-04-18T09:24:57.485Z,61.80
2023-04-18T09:28:02.069Z,61.74
2023-04-18T09:31:12.093Z,61.65
2023-04-18T09:34:25.146Z,60.31
2023-04-18T09:37:29.275Z,60.64
2023-04-18T09:40:32.531Z,62.47
2023-04-18T09:43:35.296Z,63.68
2023-04-18T09:46:37.786Z,65.53
2023-04-18T09:49:40.800Z,65.19
2023-04-18T09:52:44.806Z,65.54
2023-04-18T09:55:53.984Z,65.68
2023-04-18T09:59:06.041Z,66.88
2023-04-18T10:02:16.668Z,65.49
2023-04-18T10:05:21.519Z,67.31
2023-04-18T10:08:24.403Z,64.39
2023-04-18T10:11:27.221Z,66.81
2023-04-18T10:14:30.710Z,67.28
2023-04-18T10:17:56.227Z,63.99
2023-04-18T10:21:04.419Z,64.67
2023-04-18T10:24:07.645Z,62.80
2023-04-18T10:27:10.295Z,62.39
2023-04-18T10:30:12.970Z,62.92
2023-04-18T10:33:33.873Z,60.23
2023-04-18T10:36:36.614Z,58.55
2023-04-18T10:40:05.868Z,59.56
2023-04-18T10:43:08.266Z,55.07
2023-04-18T10:46:20.467Z,53.08
2023-04-18T10:49:34.009Z,54.10
2023-04-18T10:52:36.806Z,58.64
2023-04-18T10:55:42.330Z,52.90
2023-04-18T10:58:51.475Z,53.26
2023-04-18T11:01:58.111Z,52.73
2023-04-18T11:05:07.294Z,54.81
2023-04-18T11:08:23.842Z,53.34
2023-04-18T11:11:26.594Z,55.62
2023-04-18T11:14:42.913Z,55.39
2023-04-18T11:17:45.729Z,53.56
2023-04-18T11:20:50.771Z,54.31
2023-04-18T11:23:55.115Z,54.01
2023-04-18T11:26:58.028Z,54.27
2023-04-18T11:30:01.078Z,52.71
2023-04-18T11:33:11.517Z,55.66
2023-04-18T11:36:14.791Z,55.60
2023-04-18T11:39:17.688Z,55.30
2023-04-18T11:42:20.871Z,55.64
2023-04-18T11:45:23.280Z,57.04
2023-04-18T11:48:46.895Z,56.74
2023-04-18T11:51:49.267Z,56.44
2023-04-18T11:54:52.203Z,56.78
2023-04-18T11:57:59.285Z,55.74
2023-04-18T12:01:22.498Z,53.81
2023-04-18T12:04:24.987Z,55.38
2023-04-18T12:07:42.357Z,54.63
2023-04-18T12:10:50.731Z,56.84
2023-04-18T12:13:56.563Z,56.77
2023-04-18T12:16:58.937Z,55.87
2023-04-18T12:20:05.523Z,54.82
2023-04-18T12:23:08.495Z,55.48
2023-04-18T12:26:18.533Z,53.76
2023-04-18T12:29:21.118Z,52.88
2023-04-18T12:32:23.869Z,54.15
2023-04-18T12:35:26.840Z,54.17
2023-04-18T12:38:29.982Z,51.51
2023-04-18T12:41:32.508Z,54.58
2023-04-18T12:44:35.218Z,51.29
2023-04-18T12:47:39.068Z,50.16
2023-04-18T12:50:41.973Z,51.99
2023-04-18T12:54:09.202Z,54.04
2023-04-18T12:57:11.953Z,50.66
2023-04-18T13:00:15.029Z,50.51
2023-04-18T13:03:18.011Z,53.00
2023-04-18T13:06:20.578Z,52.45
2023-04-18T13:09:23.300Z,49.80
2023-04-18T13:12:25.696Z,51.50
2023-04-18T13:15:28.486Z,48.83
2023-04-18T13:18:31.132Z,50.85
2023-04-18T13:21:33.867Z,49.01
2023-04-18T13:24:37.359Z,48.77
2023-04-18T13:27:42.067Z,48.86
2023-04-18T13:30:44.648Z,49.97
2023-04-18T13:33:47.529Z,47.43
2023-04-18T13:36:50.104Z,48.56
2023-04-18T13:39:53.801Z,46.80
2023-04-18T13:42:56.399Z,46.49
2023-04-18T13:45:59.166Z,47.97
2023-04-18T13:49:01.647Z,47.25
2023-04-18T13:52:04.819Z,46.68
2023-04-18T13:55:07.871Z,46.86
2023-04-18T13:58:10.938Z,48.13
2023-04-18T14:01:14.361Z,48.13
2023-04-18T14:04:17.457Z,45.94
2023-04-18T14:07:19.917Z,46.52
2023-04-18T14:10:22.977Z,46.59
2023-04-18T14:13:25.912Z,44.19
2023-04-18T14:16:32.300Z,46.00
2023-04-18T14:19:35.052Z,47.13
2023-04-18T14:22:37.846Z,44.48
2023-04-18T14:25:40.232Z,42.97
2023-04-18T14:28:42.817Z,43.88
2023-04-18T14:31:45.289Z,45.76
2023-04-18T14:34:48.096Z,47.48
2023-04-18T14:37:50.458Z,47.84
2023-04-18T14:40:53.176Z,46.32
2023-04-18T14:43:55.762Z,44.78
2023-04-18T14:46:58.512Z,46.97
2023-04-18T14:50:00.860Z,47.85
2023-04-18T14:53:04.190Z,47.71
2023-04-18T14:56:07.126Z,48.88
2023-04-18T14:59:10.237Z,47.20
2023-04-18T15:02:12.686Z,47.70
2023-04-18T15:05:15.794Z,47.54
2023-04-18T15:08:18.446Z,48.35
2023-04-18T15:11:21.234Z,47.32
2023-04-18T15:14:23.732Z,49.44
2023-04-18T15:17:26.759Z,50.21
2023-04-18T15:20:29.822Z,50.20
2023-04-18T15:23:32.702Z,50.43
2023-04-18T15:26:35.159Z,51.47
2023-04-18T15:29:38.530Z,50.26
2023-04-18T15:32:42.368Z,49.35
2023-04-18T15:35:45.954Z,49.07
2023-04-18T15:38:48.335Z,48.63
2023-04-18T15:41:54.872Z,48.88
2023-04-18T15:44:57.215Z,51.53
2023-04-18T15:47:59.965Z,49.87
2023-04-18T15:51:03.223Z,49.88
2023-04-18T15:54:06.807Z,50.11
2023-04-18T15:57:10.345Z,53.94
2023-04-18T16:00:16.433Z,52.45
2023-04-18T16:03:19.372Z,51.03
2023-04-18T16:06:23.722Z,51.58
2023-04-18T16:09:26.710Z,51.10
2023-04-18T16:12:29.886Z,51.92
2023-04-18T16:15:32.538Z,52.09
2023-04-18T16:18:35.305Z,52.38
2023-04-18T16:21:37.677Z,52.97
2023-04-18T16:24:42.177Z,51.86
2023-04-18T16:27:45.066Z,52.26
2023-04-18T16:30:48.210Z,53.24
2023-04-18T16:33:53.124Z,53.14
2023-04-18T16:36:56.373Z,52.13
2023-04-18T16:40:00.353Z,52.49
2023-04-18T16:43:05.972Z,52.75
2023-04-18T16:46:09.026Z,50.87
2023-04-18T16:49:12.220Z,51.28
2023-04-18T16:52:15.684Z,52.15
2023-04-18T16:55:19.282Z,54.44
2023-04-18T16:58:23.527Z,54.50
2023-04-18T17:01:26.394Z,56.00
2023-04-18T17:04:29.881Z,55.99
2023-04-18T17:07:33.971Z,55.49
2023-04-18T17:10:36.649Z,54.77
2023-04-18T17:13:40.503Z,54.92
2023-04-18T17:16:43.943Z,54.97
2023-04-18T17:19:47.974Z,54.60
2023-04-18T17:22:52.122Z,53.59
2023-04-18T17:25:55.327Z,53.78
2023-04-18T17:28:58.213Z,54.18
2023-04-18T17:32:01.682Z,54.03
2023-04-18T17:35:06.714Z,54.22
2023-04-18T17:38:11.680Z,54.37
2023-04-18T17:41:19.085Z,54.63
2023-04-18T17:44:23.083Z,54.52
2023-04-18T17:47:25.992Z,54.11
2023-04-18T17:50:31.022Z,54.33
2023-04-18T17:53:33.907Z,56.00
2023-04-18T17:56:37.820Z,55.45
2023-04-18T17:59:41.636Z,55.90
2023-04-18T18:02:45.137Z,56.03
2023-04-18T18:05:50.537Z,56.75
2023-04-18T18:08:54.571Z,57.30
2023-04-18T18:11:59.451Z,57.83
2023-04-18T18:15:03.695Z,57.64
2023-04-18T18:18:07.561Z,57.87
2023-04-18T18:21:12.009Z,57.24
2023-04-18T18:24:15.745Z,58.66
2023-04-18T18:27:23.465Z,58.12
2023-04-18T18:30:28.679Z,57.73
2023-04-18T18:33:32.423Z,58.67
2023-04-18T18:36:37.882Z,58.04
2023-04-18T18:39:44.945Z,58.74
2023-04-18T18:42:52.261Z,58.93
2023-04-18T18:46:03.964Z,58.84
2023-04-18T18:49:09.701Z,59.29
2023-04-18T18:52:14.498Z,59.42
2023-04-18T18:55:18.523Z,60.51
2023-04-18T18:58:30.583Z,60.03
2023-04-18T19:01:36.603Z,60.28
2023-04-18T19:04:41.758Z,59.92
2023-04-18T19:07:45.900Z,60.75
2023-04-18T19:10:51.075Z,61.43
2023-04-18T19:13:54.775Z,61.01
2023-04-18T19:16:59.326Z,62.89
2023-04-18T19:20:03.422Z,62.64
2023-04-18T19:23:10.069Z,63.69
2023-04-18T19:26:14.711Z,62.61
2023-04-18T19:29:18.914Z,64.27
2023-04-18T19:32:23.352Z,64.45
2023-04-18T19:35:28.859Z,65.28
2023-04-18T19:38:33.376Z,65.95
2023-04-18T19:41:41.418Z,66.57
2023-04-18T19:44:45.825Z,67.71
2023-04-18T19:47:51.511Z,68.94
2023-04-18T19:50:58.279Z,70.02
2023-04-18T19:54:02.441Z,70.39
2023-04-18T19:57:07.750Z,70.91
2023-04-18T20:00:13.496Z,71.45
2023-04-18T20:03:20.376Z,71.79
2023-04-18T20:06:27.466Z,73.27
2023-04-18T20:09:31.444Z,73.40
2023-04-18T20:12:36.054Z,73.87
2023-04-18T20:15:40.543Z,73.12
2023-04-18T20:23:12.601Z,73.52
2023-04-18T20:26:24.373Z,73.28
2023-04-18T20:29:29.665Z,73.28
2023-04-18T20:32:34.276Z,73.07
2023-04-18T20:35:41.631Z,73.10
2023-04-18T20:38:45.308Z,74.27
2023-04-18T20:41:55.038Z,74.65
2023-04-18T20:44:59.459Z,73.77
2023-04-18T20:48:08.266Z,74.10
2023-04-18T20:51:11.097Z,74.54
2023-04-18T20:54:16.242Z,74.37
2023-04-18T20:57:21.537Z,74.17
2023-04-18T21:00:24.840Z,73.97
2023-04-18T21:03:27.658Z,73.88
2023-04-18T21:06:31.194Z,74.01
2023-04-18T21:09:36.844Z,74.00
2023-04-18T21:12:39.581Z,74.39
2023-04-18T21:15:45.111Z,74.07
2023-04-18T21:18:47.836Z,74.96
2023-04-18T21:21:50.988Z,75.06
2023-04-18T21:24:53.756Z,75.97
2023-04-18T21:27:56.397Z,75.97
2023-04-18T21:30:59.157Z,76.28
2023-04-18T21:34:05.672Z,76.72
2023-04-18T21:37:08.381Z,77.00
2023-04-18T21:40:11.117Z,77.30
2023-04-18T21:43:13.910Z,77.35
2023-04-18T21:46:16.830Z,77.30
2023-04-18T21:49:19.627Z,77.73
2023-04-18T21:52:22.016Z,78.18
2023-04-18T21:55:24.819Z,78.24
2023-04-18T21:58:28.031Z,78.55
2023-04-18T22:01:30.890Z,79.70
2023-04-18T22:04:34.070Z,79.91
2023-04-18T22:07:46.593Z,80.43
2023-04-18T22:11:00.488Z,81.49
2023-04-18T22:14:03.322Z,81.58
2023-04-18T22:17:05.757Z,82.34
2023-04-18T22:20:09.013Z,82.94
2023-04-18T22:23:11.827Z,82.63
2023-04-18T22:26:14.564Z,83.10
2023-04-18T22:29:17.008Z,83.12
2023-04-18T22:32:19.811Z,81.88
2023-04-18T22:35:22.498Z,81.59
2023-04-18T22:38:25.509Z,83.09
2023-04-18T22:41:27.963Z,84.10
2023-04-18T22:44:30.746Z,84.76
2023-04-18T22:47:33.673Z,85.87
2023-04-18T22:50:38.032Z,86.55
2023-04-18T22:53:40.623Z,87.12
2023-04-18T22:56:43.307Z,87.49
2023-04-18T22:59:46.100Z,86.97
2023-04-18T23:02:48.936Z,86.99
2023-04-18T23:05:51.475Z,86.71
2023-04-18T23:08:54.438Z,85.90
2023-04-18T23:11:56.873Z,87.90
2023-04-18T23:14:59.650Z,90.55
2023-04-18T23:18:02.169Z,91.28
2023-04-18T23:21:05.106Z,92.51
2023-04-18T23:24:07.876Z,91.58
2023-04-18T23:27:10.944Z,91.85
2023-04-18T23:30:13.515Z,94.18
2023-04-18T23:33:19.305Z,94.04
2023-04-18T23:36:21.704Z,94.89
2023-04-18T23:39:26.342Z,96.45
2023-04-18T23:42:28.697Z,97.79
2023-04-18T23:45:31.520Z,99.36
2023-04-18T23:48:33.948Z,99.91
2023-04-18T23:51:37.812Z,100.00
2023-04-18T23:54:40.211Z,100.00
2023-04-18T23:57:43.236Z,100.00
